sensor_id;sensor_type;location;lat;lon;timestamp;P1;durP1;ratioP1;P2;durP2;ratioP2
15968;SDS011;8085;53.472;9.794;2023-07-29T00:00:07;3.83;;;2.80;;
15968;SDS011;8085;53.472;9.794;2023-07-29T00:02:35;3.85;;;3.10;;
15968;SDS011;8085;53.472;9.794;2023-07-29T00:05:02;3.50;;;3.20;;
15968;SDS011;8085;53.472;9.794;2023-07-29T00:07:29;3.53;;;2.95;;
15968;SDS011;8085;53.472;9.794;2023-07-29T00:09:58;3.05;;;2.75;;
15968;SDS011;8085;53.472;9.794;2023-07-29T00:12:24;3.40;;;2.90;;
15968;SDS011;8085;53.472;9.794;2023-07-29T00:14:51;3.78;;;2.72;;
15968;SDS011;8085;53.472;9.794;2023-07-29T00:17:18;3.97;;;2.85;;
15968;SDS011;8085;53.472;9.794;2023-07-29T00:19:45;3.30;;;3.00;;
15968;SDS011;8085;53.472;9.794;2023-07-29T00:22:12;3.25;;;2.70;;
15968;SDS011;8085;53.472;9.794;2023-07-29T00:24:39;3.17;;;2.88;;
15968;SDS011;8085;53.472;9.794;2023-07-29T00:27:08;3.35;;;3.05;;
15968;SDS011;8085;53.472;9.794;2023-07-29T00:29:35;5.50;;;3.08;;
15968;SDS011;8085;53.472;9.794;2023-07-29T00:32:01;4.93;;;3.15;;
15968;SDS011;8085;53.472;9.794;2023-07-29T00:34:29;3.65;;;3.30;;
15968;SDS011;8085;53.472;9.794;2023-07-29T00:36:56;5.10;;;3.28;;
15968;SDS011;8085;53.472;9.794;2023-07-29T00:39:22;4.22;;;3.40;;
15968;SDS011;8085;53.472;9.794;2023-07-29T00:41:49;3.63;;;3.33;;
15968;SDS011;8085;53.472;9.794;2023-07-29T00:44:18;3.42;;;3.13;;
15968;SDS011;8085;53.472;9.794;2023-07-29T00:46:45;4.85;;;3.25;;
15968;SDS011;8085;53.472;9.794;2023-07-29T00:49:13;5.05;;;3.00;;
15968;SDS011;8085;53.472;9.794;2023-07-29T00:51:40;3.97;;;3.13;;
15968;SDS011;8085;53.472;9.794;2023-07-29T00:54:07;5.00;;;3.60;;
15968;SDS011;8085;53.472;9.794;2023-07-29T00:56:33;3.53;;;3.22;;
15968;SDS011;8085;53.472;9.794;2023-07-29T00:59:01;3.90;;;2.70;;
15968;SDS011;8085;53.472;9.794;2023-07-29T01:01:30;4.35;;;3.78;;
15968;SDS011;8085;53.472;9.794;2023-07-29T01:03:58;4.13;;;3.38;;
15968;SDS011;8085;53.472;9.794;2023-07-29T01:06:27;3.40;;;3.10;;
15968;SDS011;8085;53.472;9.794;2023-07-29T01:09:01;4.50;;;3.33;;
15968;SDS011;8085;53.472;9.794;2023-07-29T01:11:33;3.30;;;3.03;;
15968;SDS011;8085;53.472;9.794;2023-07-29T01:14:12;3.83;;;3.33;;
15968;SDS011;8085;53.472;9.794;2023-07-29T01:16:52;5.20;;;4.03;;
15968;SDS011;8085;53.472;9.794;2023-07-29T01:19:26;4.57;;;4.18;;
15968;SDS011;8085;53.472;9.794;2023-07-29T01:22:10;5.13;;;4.22;;
15968;SDS011;8085;53.472;9.794;2023-07-29T01:24:38;9.55;;;4.40;;
15968;SDS011;8085;53.472;9.794;2023-07-29T01:27:05;6.13;;;4.20;;
15968;SDS011;8085;53.472;9.794;2023-07-29T01:29:32;6.45;;;4.03;;
15968;SDS011;8085;53.472;9.794;2023-07-29T01:32:01;4.63;;;4.07;;
15968;SDS011;8085;53.472;9.794;2023-07-29T01:34:35;5.43;;;4.32;;
15968;SDS011;8085;53.472;9.794;2023-07-29T01:37:08;3.90;;;3.60;;
15968;SDS011;8085;53.472;9.794;2023-07-29T01:39:39;5.85;;;5.00;;
15968;SDS011;8085;53.472;9.794;2023-07-29T01:42:07;5.15;;;4.55;;
15968;SDS011;8085;53.472;9.794;2023-07-29T01:44:34;6.78;;;5.30;;
15968;SDS011;8085;53.472;9.794;2023-07-29T01:47:02;5.65;;;4.22;;
15968;SDS011;8085;53.472;9.794;2023-07-29T01:49:29;8.52;;;5.22;;
15968;SDS011;8085;53.472;9.794;2023-07-29T01:51:55;8.43;;;4.95;;
15968;SDS011;8085;53.472;9.794;2023-07-29T01:54:22;4.70;;;4.20;;
15968;SDS011;8085;53.472;9.794;2023-07-29T01:56:51;5.82;;;4.95;;
15968;SDS011;8085;53.472;9.794;2023-07-29T01:59:17;5.70;;;4.43;;
15968;SDS011;8085;53.472;9.794;2023-07-29T02:01:44;5.30;;;4.80;;
15968;SDS011;8085;53.472;9.794;2023-07-29T02:04:12;8.10;;;5.32;;
15968;SDS011;8085;53.472;9.794;2023-07-29T02:06:39;6.60;;;4.65;;
15968;SDS011;8085;53.472;9.794;2023-07-29T02:09:06;5.05;;;4.25;;
15968;SDS011;8085;53.472;9.794;2023-07-29T02:11:33;5.53;;;4.88;;
15968;SDS011;8085;53.472;9.794;2023-07-29T02:14:01;7.05;;;5.00;;
15968;SDS011;8085;53.472;9.794;2023-07-29T02:16:28;8.00;;;5.57;;
15968;SDS011;8085;53.472;9.794;2023-07-29T02:18:55;6.35;;;5.30;;
15968;SDS011;8085;53.472;9.794;2023-07-29T02:21:22;5.78;;;4.72;;
15968;SDS011;8085;53.472;9.794;2023-07-29T02:23:49;6.43;;;5.13;;
15968;SDS011;8085;53.472;9.794;2023-07-29T02:26:16;5.95;;;5.28;;
15968;SDS011;8085;53.472;9.794;2023-07-29T02:28:43;7.40;;;5.03;;
15968;SDS011;8085;53.472;9.794;2023-07-29T02:31:15;6.15;;;5.05;;
15968;SDS011;8085;53.472;9.794;2023-07-29T02:33:43;5.50;;;4.50;;
15968;SDS011;8085;53.472;9.794;2023-07-29T02:36:11;6.10;;;5.25;;
15968;SDS011;8085;53.472;9.794;2023-07-29T02:38:38;9.43;;;5.90;;
15968;SDS011;8085;53.472;9.794;2023-07-29T02:41:05;6.93;;;6.22;;
15968;SDS011;8085;53.472;9.794;2023-07-29T02:43:34;8.93;;;5.82;;
15968;SDS011;8085;53.472;9.794;2023-07-29T02:46:00;5.97;;;5.28;;
15968;SDS011;8085;53.472;9.794;2023-07-29T02:48:29;6.82;;;5.32;;
15968;SDS011;8085;53.472;9.794;2023-07-29T02:50:56;6.18;;;5.38;;
15968;SDS011;8085;53.472;9.794;2023-07-29T02:53:23;5.45;;;4.72;;
15968;SDS011;8085;53.472;9.794;2023-07-29T02:55:50;6.38;;;5.28;;
15968;SDS011;8085;53.472;9.794;2023-07-29T02:58:16;7.97;;;5.75;;
15968;SDS011;8085;53.472;9.794;2023-07-29T03:00:43;8.05;;;5.97;;
15968;SDS011;8085;53.472;9.794;2023-07-29T03:03:12;7.80;;;6.05;;
15968;SDS011;8085;53.472;9.794;2023-07-29T03:05:40;9.63;;;7.22;;
15968;SDS011;8085;53.472;9.794;2023-07-29T03:08:07;7.82;;;6.25;;
15968;SDS011;8085;53.472;9.794;2023-07-29T03:10:34;11.07;;;7.80;;
15968;SDS011;8085;53.472;9.794;2023-07-29T03:13:01;9.05;;;7.03;;
15968;SDS011;8085;53.472;9.794;2023-07-29T03:15:28;10.10;;;8.35;;
15968;SDS011;8085;53.472;9.794;2023-07-29T03:17:55;12.00;;;8.48;;
15968;SDS011;8085;53.472;9.794;2023-07-29T03:20:21;14.23;;;9.07;;
15968;SDS011;8085;53.472;9.794;2023-07-29T03:22:50;16.17;;;10.05;;
15968;SDS011;8085;53.472;9.794;2023-07-29T03:25:17;21.55;;;10.48;;
15968;SDS011;8085;53.472;9.794;2023-07-29T03:27:43;19.02;;;11.25;;
15968;SDS011;8085;53.472;9.794;2023-07-29T03:30:10;16.23;;;9.68;;
15968;SDS011;8085;53.472;9.794;2023-07-29T03:32:39;19.48;;;12.07;;
15968;SDS011;8085;53.472;9.794;2023-07-29T03:35:10;15.63;;;10.63;;
15968;SDS011;8085;53.472;9.794;2023-07-29T03:37:37;26.15;;;13.32;;
15968;SDS011;8085;53.472;9.794;2023-07-29T03:40:06;24.98;;;14.20;;
15968;SDS011;8085;53.472;9.794;2023-07-29T03:42:34;22.35;;;13.38;;
15968;SDS011;8085;53.472;9.794;2023-07-29T03:45:01;25.05;;;14.13;;
15968;SDS011;8085;53.472;9.794;2023-07-29T03:47:28;22.08;;;13.48;;
15968;SDS011;8085;53.472;9.794;2023-07-29T03:49:55;21.42;;;13.50;;
15968;SDS011;8085;53.472;9.794;2023-07-29T03:52:21;25.23;;;15.20;;
15968;SDS011;8085;53.472;9.794;2023-07-29T03:54:48;28.00;;;14.77;;
15968;SDS011;8085;53.472;9.794;2023-07-29T03:57:16;30.25;;;14.27;;
15968;SDS011;8085;53.472;9.794;2023-07-29T03:59:43;28.38;;;15.65;;
15968;SDS011;8085;53.472;9.794;2023-07-29T04:02:10;23.38;;;14.38;;
15968;SDS011;8085;53.472;9.794;2023-07-29T04:04:37;24.25;;;14.80;;
15968;SDS011;8085;53.472;9.794;2023-07-29T04:07:04;26.75;;;15.90;;
15968;SDS011;8085;53.472;9.794;2023-07-29T04:09:31;30.65;;;17.15;;
15968;SDS011;8085;53.472;9.794;2023-07-29T04:11:58;28.00;;;15.18;;
15968;SDS011;8085;53.472;9.794;2023-07-29T04:14:27;27.08;;;15.80;;
15968;SDS011;8085;53.472;9.794;2023-07-29T04:16:53;29.50;;;16.33;;
15968;SDS011;8085;53.472;9.794;2023-07-29T04:19:20;30.60;;;17.35;;
15968;SDS011;8085;53.472;9.794;2023-07-29T04:21:47;27.45;;;15.55;;
15968;SDS011;8085;53.472;9.794;2023-07-29T04:24:15;31.73;;;17.70;;
15968;SDS011;8085;53.472;9.794;2023-07-29T04:26:42;28.33;;;17.48;;
15968;SDS011;8085;53.472;9.794;2023-07-29T04:29:10;35.50;;;17.33;;
15968;SDS011;8085;53.472;9.794;2023-07-29T04:31:38;28.50;;;17.17;;
15968;SDS011;8085;53.472;9.794;2023-07-29T04:34:05;27.13;;;15.93;;
15968;SDS011;8085;53.472;9.794;2023-07-29T04:36:31;31.35;;;17.08;;
15968;SDS011;8085;53.472;9.794;2023-07-29T04:38:58;30.35;;;16.77;;
15968;SDS011;8085;53.472;9.794;2023-07-29T04:41:25;31.20;;;16.90;;
15968;SDS011;8085;53.472;9.794;2023-07-29T04:43:52;32.53;;;18.35;;
15968;SDS011;8085;53.472;9.794;2023-07-29T04:46:19;29.08;;;17.70;;
15968;SDS011;8085;53.472;9.794;2023-07-29T04:48:47;30.08;;;19.02;;
15968;SDS011;8085;53.472;9.794;2023-07-29T04:51:14;22.75;;;14.40;;
15968;SDS011;8085;53.472;9.794;2023-07-29T04:53:41;34.00;;;18.92;;
15968;SDS011;8085;53.472;9.794;2023-07-29T04:56:07;34.80;;;18.48;;
15968;SDS011;8085;53.472;9.794;2023-07-29T04:58:34;31.13;;;18.05;;
15968;SDS011;8085;53.472;9.794;2023-07-29T05:01:01;26.33;;;16.63;;
15968;SDS011;8085;53.472;9.794;2023-07-29T05:03:28;34.92;;;19.77;;
15968;SDS011;8085;53.472;9.794;2023-07-29T05:05:57;33.67;;;18.73;;
15968;SDS011;8085;53.472;9.794;2023-07-29T05:08:24;30.02;;;17.92;;
15968;SDS011;8085;53.472;9.794;2023-07-29T05:10:52;32.25;;;18.95;;
15968;SDS011;8085;53.472;9.794;2023-07-29T05:13:19;33.00;;;18.13;;
15968;SDS011;8085;53.472;9.794;2023-07-29T05:15:47;26.27;;;16.38;;
15968;SDS011;8085;53.472;9.794;2023-07-29T05:18:14;35.65;;;20.42;;
15968;SDS011;8085;53.472;9.794;2023-07-29T05:20:41;29.67;;;16.05;;
15968;SDS011;8085;53.472;9.794;2023-07-29T05:23:10;31.63;;;19.17;;
15968;SDS011;8085;53.472;9.794;2023-07-29T05:25:36;31.52;;;18.48;;
15968;SDS011;8085;53.472;9.794;2023-07-29T05:28:03;31.05;;;18.80;;
15968;SDS011;8085;53.472;9.794;2023-07-29T05:30:30;31.27;;;18.45;;
15968;SDS011;8085;53.472;9.794;2023-07-29T05:32:59;29.20;;;17.67;;
15968;SDS011;8085;53.472;9.794;2023-07-29T05:35:26;32.72;;;17.55;;
15968;SDS011;8085;53.472;9.794;2023-07-29T05:37:52;32.00;;;16.65;;
15968;SDS011;8085;53.472;9.794;2023-07-29T05:40:21;30.65;;;17.95;;
15968;SDS011;8085;53.472;9.794;2023-07-29T05:42:47;31.02;;;18.02;;
15968;SDS011;8085;53.472;9.794;2023-07-29T05:45:14;32.05;;;18.95;;
15968;SDS011;8085;53.472;9.794;2023-07-29T05:47:41;25.85;;;15.60;;
15968;SDS011;8085;53.472;9.794;2023-07-29T05:50:08;28.92;;;17.23;;
15968;SDS011;8085;53.472;9.794;2023-07-29T05:52:36;30.05;;;18.27;;
15968;SDS011;8085;53.472;9.794;2023-07-29T05:55:03;28.58;;;15.88;;
15968;SDS011;8085;53.472;9.794;2023-07-29T05:57:32;24.63;;;14.55;;
15968;SDS011;8085;53.472;9.794;2023-07-29T05:59:59;26.38;;;15.40;;
15968;SDS011;8085;53.472;9.794;2023-07-29T06:02:26;29.17;;;17.45;;
15968;SDS011;8085;53.472;9.794;2023-07-29T06:04:53;33.22;;;18.92;;
15968;SDS011;8085;53.472;9.794;2023-07-29T06:07:20;31.77;;;17.58;;
15968;SDS011;8085;53.472;9.794;2023-07-29T06:09:47;34.90;;;19.00;;
15968;SDS011;8085;53.472;9.794;2023-07-29T06:12:13;28.23;;;17.20;;
15968;SDS011;8085;53.472;9.794;2023-07-29T06:14:42;25.33;;;16.23;;
15968;SDS011;8085;53.472;9.794;2023-07-29T06:17:08;34.13;;;18.85;;
15968;SDS011;8085;53.472;9.794;2023-07-29T06:19:36;31.02;;;18.98;;
15968;SDS011;8085;53.472;9.794;2023-07-29T06:22:04;26.45;;;17.38;;
15968;SDS011;8085;53.472;9.794;2023-07-29T06:24:31;30.70;;;17.23;;
15968;SDS011;8085;53.472;9.794;2023-07-29T06:26:58;31.55;;;17.98;;
15968;SDS011;8085;53.472;9.794;2023-07-29T06:29:25;27.27;;;16.67;;
15968;SDS011;8085;53.472;9.794;2023-07-29T06:31:53;27.45;;;16.65;;
15968;SDS011;8085;53.472;9.794;2023-07-29T06:34:20;23.50;;;15.43;;
15968;SDS011;8085;53.472;9.794;2023-07-29T06:36:47;26.83;;;16.40;;
15968;SDS011;8085;53.472;9.794;2023-07-29T06:39:14;19.42;;;13.60;;
15968;SDS011;8085;53.472;9.794;2023-07-29T06:41:41;25.95;;;15.73;;
15968;SDS011;8085;53.472;9.794;2023-07-29T06:44:08;27.15;;;15.88;;
15968;SDS011;8085;53.472;9.794;2023-07-29T06:46:34;21.52;;;14.38;;
15968;SDS011;8085;53.472;9.794;2023-07-29T06:49:03;20.08;;;13.13;;
15968;SDS011;8085;53.472;9.794;2023-07-29T06:51:31;23.27;;;14.65;;
15968;SDS011;8085;53.472;9.794;2023-07-29T06:53:59;18.30;;;12.63;;
15968;SDS011;8085;53.472;9.794;2023-07-29T06:56:26;17.23;;;12.45;;
15968;SDS011;8085;53.472;9.794;2023-07-29T06:58:53;15.55;;;10.48;;
15968;SDS011;8085;53.472;9.794;2023-07-29T07:01:20;18.35;;;12.27;;
15968;SDS011;8085;53.472;9.794;2023-07-29T07:03:47;20.90;;;12.55;;
15968;SDS011;8085;53.472;9.794;2023-07-29T07:06:15;21.00;;;13.00;;
15968;SDS011;8085;53.472;9.794;2023-07-29T07:08:42;20.30;;;13.27;;
15968;SDS011;8085;53.472;9.794;2023-07-29T07:11:09;19.85;;;11.25;;
15968;SDS011;8085;53.472;9.794;2023-07-29T07:13:36;18.58;;;12.85;;
15968;SDS011;8085;53.472;9.794;2023-07-29T07:16:03;20.60;;;12.50;;
15968;SDS011;8085;53.472;9.794;2023-07-29T07:18:30;17.83;;;11.10;;
15968;SDS011;8085;53.472;9.794;2023-07-29T07:20:57;12.50;;;8.77;;
15968;SDS011;8085;53.472;9.794;2023-07-29T07:23:28;14.20;;;9.88;;
15968;SDS011;8085;53.472;9.794;2023-07-29T07:25:55;19.02;;;11.85;;
15968;SDS011;8085;53.472;9.794;2023-07-29T07:28:21;16.65;;;11.30;;
15968;SDS011;8085;53.472;9.794;2023-07-29T07:30:48;14.23;;;10.48;;
15968;SDS011;8085;53.472;9.794;2023-07-29T07:33:15;16.25;;;10.40;;
15968;SDS011;8085;53.472;9.794;2023-07-29T07:35:42;17.23;;;10.98;;
15968;SDS011;8085;53.472;9.794;2023-07-29T07:38:09;17.98;;;10.52;;
15968;SDS011;8085;53.472;9.794;2023-07-29T07:40:38;13.73;;;9.60;;
15968;SDS011;8085;53.472;9.794;2023-07-29T07:43:05;17.10;;;9.48;;
15968;SDS011;8085;53.472;9.794;2023-07-29T07:45:32;13.75;;;9.27;;
15968;SDS011;8085;53.472;9.794;2023-07-29T07:47:59;13.45;;;9.85;;
15968;SDS011;8085;53.472;9.794;2023-07-29T07:50:28;17.65;;;10.13;;
15968;SDS011;8085;53.472;9.794;2023-07-29T07:52:55;17.10;;;10.30;;
15968;SDS011;8085;53.472;9.794;2023-07-29T07:55:22;17.70;;;11.20;;
15968;SDS011;8085;53.472;9.794;2023-07-29T07:57:50;16.08;;;10.48;;
15968;SDS011;8085;53.472;9.794;2023-07-29T08:00:17;16.15;;;10.20;;
15968;SDS011;8085;53.472;9.794;2023-07-29T08:02:45;14.77;;;10.65;;
15968;SDS011;8085;53.472;9.794;2023-07-29T08:05:11;15.57;;;10.38;;
15968;SDS011;8085;53.472;9.794;2023-07-29T08:07:38;14.43;;;10.52;;
15968;SDS011;8085;53.472;9.794;2023-07-29T08:10:06;14.88;;;9.63;;
15968;SDS011;8085;53.472;9.794;2023-07-29T08:12:33;14.38;;;9.90;;
15968;SDS011;8085;53.472;9.794;2023-07-29T08:15:01;12.00;;;9.30;;
15968;SDS011;8085;53.472;9.794;2023-07-29T08:17:29;15.65;;;10.02;;
15968;SDS011;8085;53.472;9.794;2023-07-29T08:19:55;13.95;;;10.82;;
15968;SDS011;8085;53.472;9.794;2023-07-29T08:22:22;14.07;;;10.60;;
15968;SDS011;8085;53.472;9.794;2023-07-29T08:24:49;16.50;;;11.18;;
15968;SDS011;8085;53.472;9.794;2023-07-29T08:27:16;13.65;;;9.25;;
15968;SDS011;8085;53.472;9.794;2023-07-29T08:29:43;13.88;;;10.43;;
15968;SDS011;8085;53.472;9.794;2023-07-29T08:32:11;14.57;;;10.63;;
15968;SDS011;8085;53.472;9.794;2023-07-29T08:34:38;14.50;;;10.77;;
15968;SDS011;8085;53.472;9.794;2023-07-29T08:37:05;13.85;;;10.60;;
15968;SDS011;8085;53.472;9.794;2023-07-29T08:39:32;12.73;;;10.20;;
15968;SDS011;8085;53.472;9.794;2023-07-29T08:42:00;17.48;;;12.20;;
15968;SDS011;8085;53.472;9.794;2023-07-29T08:44:31;13.10;;;10.70;;
15968;SDS011;8085;53.472;9.794;2023-07-29T08:47:02;15.50;;;11.90;;
15968;SDS011;8085;53.472;9.794;2023-07-29T08:49:31;19.08;;;12.43;;
15968;SDS011;8085;53.472;9.794;2023-07-29T08:51:59;14.85;;;10.88;;
15968;SDS011;8085;53.472;9.794;2023-07-29T08:54:27;14.40;;;11.15;;
15968;SDS011;8085;53.472;9.794;2023-07-29T08:56:54;14.10;;;11.40;;
15968;SDS011;8085;53.472;9.794;2023-07-29T08:59:21;16.10;;;11.55;;
15968;SDS011;8085;53.472;9.794;2023-07-29T09:01:48;15.55;;;11.73;;
15968;SDS011;8085;53.472;9.794;2023-07-29T09:04:18;16.52;;;11.77;;
15968;SDS011;8085;53.472;9.794;2023-07-29T09:06:47;18.92;;;11.88;;
15968;SDS011;8085;53.472;9.794;2023-07-29T09:09:17;14.65;;;11.10;;
15968;SDS011;8085;53.472;9.794;2023-07-29T09:11:44;15.88;;;11.10;;
15968;SDS011;8085;53.472;9.794;2023-07-29T09:14:11;11.88;;;9.57;;
15968;SDS011;8085;53.472;9.794;2023-07-29T09:16:39;11.65;;;9.20;;
15968;SDS011;8085;53.472;9.794;2023-07-29T09:19:06;11.15;;;9.05;;
15968;SDS011;8085;53.472;9.794;2023-07-29T09:21:33;11.20;;;6.97;;
15968;SDS011;8085;53.472;9.794;2023-07-29T09:24:03;14.25;;;9.02;;
15968;SDS011;8085;53.472;9.794;2023-07-29T09:26:32;9.80;;;8.27;;
15968;SDS011;8085;53.472;9.794;2023-07-29T09:29:00;10.10;;;8.57;;
15968;SDS011;8085;53.472;9.794;2023-07-29T09:31:27;10.90;;;7.90;;
15968;SDS011;8085;53.472;9.794;2023-07-29T09:33:55;11.48;;;7.90;;
15968;SDS011;8085;53.472;9.794;2023-07-29T09:36:24;9.52;;;8.07;;
15968;SDS011;8085;53.472;9.794;2023-07-29T09:38:54;9.50;;;7.05;;
15968;SDS011;8085;53.472;9.794;2023-07-29T09:41:24;7.00;;;6.30;;
15968;SDS011;8085;53.472;9.794;2023-07-29T09:43:55;8.50;;;5.85;;
15968;SDS011;8085;53.472;9.794;2023-07-29T09:46:23;6.57;;;5.45;;
15968;SDS011;8085;53.472;9.794;2023-07-29T09:48:52;5.03;;;4.47;;
15968;SDS011;8085;53.472;9.794;2023-07-29T09:51:20;4.88;;;3.72;;
15968;SDS011;8085;53.472;9.794;2023-07-29T09:53:48;3.70;;;3.40;;
15968;SDS011;8085;53.472;9.794;2023-07-29T09:56:17;3.92;;;3.60;;
15968;SDS011;8085;53.472;9.794;2023-07-29T09:58:45;4.50;;;4.10;;
15968;SDS011;8085;53.472;9.794;2023-07-29T10:01:14;4.70;;;3.88;;
15968;SDS011;8085;53.472;9.794;2023-07-29T10:03:41;4.57;;;3.90;;
15968;SDS011;8085;53.472;9.794;2023-07-29T10:06:10;3.78;;;3.42;;
15968;SDS011;8085;53.472;9.794;2023-07-29T10:08:37;3.83;;;3.10;;
15968;SDS011;8085;53.472;9.794;2023-07-29T10:11:06;3.67;;;3.38;;
15968;SDS011;8085;53.472;9.794;2023-07-29T10:13:33;2.58;;;2.20;;
15968;SDS011;8085;53.472;9.794;2023-07-29T10:16:02;3.08;;;2.75;;
15968;SDS011;8085;53.472;9.794;2023-07-29T10:18:30;2.70;;;2.50;;
15968;SDS011;8085;53.472;9.794;2023-07-29T10:20:59;5.68;;;2.75;;
15968;SDS011;8085;53.472;9.794;2023-07-29T10:23:27;3.15;;;2.70;;
15968;SDS011;8085;53.472;9.794;2023-07-29T10:25:57;2.35;;;2.13;;
15968;SDS011;8085;53.472;9.794;2023-07-29T10:28:29;2.45;;;2.13;;
15968;SDS011;8085;53.472;9.794;2023-07-29T10:30:57;2.58;;;2.17;;
15968;SDS011;8085;53.472;9.794;2023-07-29T10:33:26;2.45;;;2.25;;
15968;SDS011;8085;53.472;9.794;2023-07-29T10:35:53;2.53;;;2.13;;
15968;SDS011;8085;53.472;9.794;2023-07-29T10:38:21;2.42;;;2.08;;
15968;SDS011;8085;53.472;9.794;2023-07-29T10:40:50;1.52;;;1.40;;
15968;SDS011;8085;53.472;9.794;2023-07-29T10:43:18;2.38;;;1.80;;
15968;SDS011;8085;53.472;9.794;2023-07-29T10:45:49;2.00;;;1.80;;
15968;SDS011;8085;53.472;9.794;2023-07-29T10:51:24;4.03;;;2.05;;
15968;SDS011;8085;53.472;9.794;2023-07-29T10:53:57;4.18;;;1.88;;
15968;SDS011;8085;53.472;9.794;2023-07-29T10:56:29;3.05;;;1.95;;
15968;SDS011;8085;53.472;9.794;2023-07-29T10:58:58;2.45;;;2.22;;
15968;SDS011;8085;53.472;9.794;2023-07-29T11:01:50;2.60;;;2.28;;
15968;SDS011;8085;53.472;9.794;2023-07-29T11:04:26;2.60;;;2.40;;
15968;SDS011;8085;53.472;9.794;2023-07-29T11:09:55;3.30;;;1.85;;
15968;SDS011;8085;53.472;9.794;2023-07-29T11:12:34;3.35;;;2.30;;
15968;SDS011;8085;53.472;9.794;2023-07-29T11:15:12;2.65;;;2.40;;
15968;SDS011;8085;53.472;9.794;2023-07-29T11:17:50;3.15;;;2.40;;
15968;SDS011;8085;53.472;9.794;2023-07-29T11:20:20;2.42;;;2.22;;
15968;SDS011;8085;53.472;9.794;2023-07-29T11:22:48;2.90;;;2.60;;
15968;SDS011;8085;53.472;9.794;2023-07-29T11:25:15;4.18;;;2.92;;
15968;SDS011;8085;53.472;9.794;2023-07-29T11:27:43;3.10;;;2.80;;
15968;SDS011;8085;53.472;9.794;2023-07-29T11:30:11;3.50;;;3.20;;
15968;SDS011;8085;53.472;9.794;2023-07-29T11:32:40;4.97;;;3.30;;
15968;SDS011;8085;53.472;9.794;2023-07-29T11:35:08;3.95;;;2.80;;
15968;SDS011;8085;53.472;9.794;2023-07-29T11:37:39;3.33;;;3.03;;
15968;SDS011;8085;53.472;9.794;2023-07-29T11:40:06;3.95;;;3.00;;
15968;SDS011;8085;53.472;9.794;2023-07-29T11:42:35;2.83;;;2.60;;
15968;SDS011;8085;53.472;9.794;2023-07-29T11:45:03;3.05;;;2.53;;
15968;SDS011;8085;53.472;9.794;2023-07-29T11:47:31;2.65;;;2.42;;
15968;SDS011;8085;53.472;9.794;2023-07-29T11:50:01;2.75;;;2.45;;
15968;SDS011;8085;53.472;9.794;2023-07-29T11:52:29;2.17;;;1.92;;
15968;SDS011;8085;53.472;9.794;2023-07-29T11:54:59;3.33;;;2.33;;
15968;SDS011;8085;53.472;9.794;2023-07-29T11:57:27;3.35;;;2.40;;
15968;SDS011;8085;53.472;9.794;2023-07-29T11:59:54;2.00;;;1.90;;
15968;SDS011;8085;53.472;9.794;2023-07-29T12:02:21;2.22;;;2.03;;
15968;SDS011;8085;53.472;9.794;2023-07-29T12:04:50;3.03;;;1.90;;
15968;SDS011;8085;53.472;9.794;2023-07-29T12:07:20;2.47;;;2.10;;
15968;SDS011;8085;53.472;9.794;2023-07-29T12:09:47;2.20;;;1.60;;
15968;SDS011;8085;53.472;9.794;2023-07-29T12:12:17;1.48;;;1.38;;
15968;SDS011;8085;53.472;9.794;2023-07-29T12:14:45;2.42;;;1.60;;
15968;SDS011;8085;53.472;9.794;2023-07-29T12:17:12;1.50;;;1.40;;
15968;SDS011;8085;53.472;9.794;2023-07-29T12:19:40;1.45;;;1.35;;
15968;SDS011;8085;53.472;9.794;2023-07-29T12:22:08;1.52;;;1.42;;
15968;SDS011;8085;53.472;9.794;2023-07-29T12:24:36;1.48;;;1.38;;
15968;SDS011;8085;53.472;9.794;2023-07-29T12:27:05;2.13;;;1.30;;
15968;SDS011;8085;53.472;9.794;2023-07-29T12:29:41;1.63;;;1.45;;
15968;SDS011;8085;53.472;9.794;2023-07-29T12:32:08;2.10;;;1.58;;
15968;SDS011;8085;53.472;9.794;2023-07-29T12:34:36;1.98;;;1.58;;
15968;SDS011;8085;53.472;9.794;2023-07-29T12:37:04;1.58;;;1.33;;
15968;SDS011;8085;53.472;9.794;2023-07-29T12:39:33;1.60;;;1.50;;
15968;SDS011;8085;53.472;9.794;2023-07-29T12:42:01;3.28;;;1.67;;
15968;SDS011;8085;53.472;9.794;2023-07-29T12:44:30;1.95;;;1.65;;
15968;SDS011;8085;53.472;9.794;2023-07-29T12:47:00;3.30;;;1.95;;
15968;SDS011;8085;53.472;9.794;2023-07-29T12:49:27;2.22;;;1.48;;
15968;SDS011;8085;53.472;9.794;2023-07-29T12:51:54;2.10;;;1.30;;
15968;SDS011;8085;53.472;9.794;2023-07-29T12:54:22;6.15;;;1.70;;
15968;SDS011;8085;53.472;9.794;2023-07-29T12:56:49;3.13;;;1.60;;
15968;SDS011;8085;53.472;9.794;2023-07-29T12:59:16;2.65;;;1.75;;
15968;SDS011;8085;53.472;9.794;2023-07-29T13:01:43;2.30;;;1.15;;
15968;SDS011;8085;53.472;9.794;2023-07-29T13:04:11;2.90;;;1.63;;
15968;SDS011;8085;53.472;9.794;2023-07-29T13:06:38;1.67;;;1.55;;
15968;SDS011;8085;53.472;9.794;2023-07-29T13:09:05;2.90;;;1.50;;
15968;SDS011;8085;53.472;9.794;2023-07-29T13:11:32;1.50;;;1.40;;
15968;SDS011;8085;53.472;9.794;2023-07-29T13:13:59;3.83;;;1.70;;
15968;SDS011;8085;53.472;9.794;2023-07-29T13:16:26;2.45;;;2.10;;
15968;SDS011;8085;53.472;9.794;2023-07-29T13:18:53;3.30;;;1.52;;
15968;SDS011;8085;53.472;9.794;2023-07-29T13:21:22;2.40;;;1.63;;
15968;SDS011;8085;53.472;9.794;2023-07-29T13:23:49;3.90;;;1.67;;
15968;SDS011;8085;53.472;9.794;2023-07-29T13:26:15;1.60;;;1.50;;
15968;SDS011;8085;53.472;9.794;2023-07-29T13:28:41;3.28;;;1.15;;
15968;SDS011;8085;53.472;9.794;2023-07-29T13:31:08;1.88;;;1.70;;
15968;SDS011;8085;53.472;9.794;2023-07-29T13:33:35;2.13;;;1.92;;
15968;SDS011;8085;53.472;9.794;2023-07-29T13:36:03;1.88;;;1.70;;
15968;SDS011;8085;53.472;9.794;2023-07-29T13:38:31;3.92;;;1.60;;
15968;SDS011;8085;53.472;9.794;2023-07-29T13:40:58;1.73;;;1.42;;
15968;SDS011;8085;53.472;9.794;2023-07-29T13:43:25;2.08;;;1.55;;
15968;SDS011;8085;53.472;9.794;2023-07-29T13:45:52;1.70;;;1.60;;
15968;SDS011;8085;53.472;9.794;2023-07-29T13:48:19;2.30;;;1.40;;
15968;SDS011;8085;53.472;9.794;2023-07-29T13:50:46;1.50;;;1.10;;
15968;SDS011;8085;53.472;9.794;2023-07-29T13:53:12;2.22;;;1.52;;
15968;SDS011;8085;53.472;9.794;2023-07-29T13:55:41;2.45;;;1.70;;
15968;SDS011;8085;53.472;9.794;2023-07-29T13:58:09;1.67;;;1.48;;
15968;SDS011;8085;53.472;9.794;2023-07-29T14:00:36;3.38;;;1.42;;
15968;SDS011;8085;53.472;9.794;2023-07-29T14:03:03;1.55;;;1.35;;
15968;SDS011;8085;53.472;9.794;2023-07-29T14:05:29;3.03;;;1.45;;
15968;SDS011;8085;53.472;9.794;2023-07-29T14:07:56;1.30;;;1.00;;
15968;SDS011;8085;53.472;9.794;2023-07-29T14:10:23;1.55;;;1.40;;
15968;SDS011;8085;53.472;9.794;2023-07-29T14:12:52;2.88;;;1.25;;
15968;SDS011;8085;53.472;9.794;2023-07-29T14:15:19;2.58;;;1.70;;
15968;SDS011;8085;53.472;9.794;2023-07-29T14:17:47;1.98;;;1.70;;
15968;SDS011;8085;53.472;9.794;2023-07-29T14:20:14;3.47;;;1.27;;
15968;SDS011;8085;53.472;9.794;2023-07-29T14:22:40;1.80;;;1.42;;
15968;SDS011;8085;53.472;9.794;2023-07-29T14:25:07;1.75;;;1.42;;
15968;SDS011;8085;53.472;9.794;2023-07-29T14:27:34;1.30;;;1.20;;
15968;SDS011;8085;53.472;9.794;2023-07-29T14:30:03;1.50;;;1.40;;
15968;SDS011;8085;53.472;9.794;2023-07-29T14:32:30;2.13;;;1.60;;
15968;SDS011;8085;53.472;9.794;2023-07-29T14:34:57;3.38;;;1.52;;
15968;SDS011;8085;53.472;9.794;2023-07-29T14:37:28;1.75;;;1.50;;
15968;SDS011;8085;53.472;9.794;2023-07-29T14:39:55;1.45;;;1.35;;
15968;SDS011;8085;53.472;9.794;2023-07-29T14:42:23;1.50;;;1.40;;
15968;SDS011;8085;53.472;9.794;2023-07-29T14:44:50;2.13;;;1.33;;
15968;SDS011;8085;53.472;9.794;2023-07-29T14:47:18;1.70;;;1.60;;
15968;SDS011;8085;53.472;9.794;2023-07-29T14:49:45;2.25;;;1.27;;
15968;SDS011;8085;53.472;9.794;2023-07-29T14:52:13;1.73;;;1.58;;
15968;SDS011;8085;53.472;9.794;2023-07-29T14:54:39;2.83;;;1.60;;
15968;SDS011;8085;53.472;9.794;2023-07-29T14:57:07;4.32;;;1.70;;
15968;SDS011;8085;53.472;9.794;2023-07-29T14:59:36;2.25;;;1.70;;